createdAt,value
2018-08-03T00:00:40.541Z,21.11
2018-08-03T00:03:09.294Z,21.05
2018-08-03T00:05:37.964Z,20.94
2018-08-03T00:08:06.879Z,20.94
2018-08-03T00:10:35.490Z,21.06
2018-08-03T00:13:04.433Z,21.19
2018-08-03T00:15:33.087Z,21.28
2018-08-03T00:18:01.759Z,21.21
2018-08-03T00:20:30.360Z,21.26
2018-08-03T00:22:59.049Z,21.31
2018-08-03T00:25:27.699Z,21.39
2018-08-03T00:27:56.363Z,21.49
2018-08-03T00:30:25.023Z,21.56
2018-08-03T00:32:53.934Z,21.68
2018-08-03T00:35:22.594Z,21.58
2018-08-03T00:37:51.213Z,21.48
2018-08-03T00:40:19.913Z,21.32
2018-08-03T00:42:48.782Z,21.30
2018-08-03T00:45:17.485Z,21.15
2018-08-03T00:47:46.195Z,21.13
2018-08-03T00:50:14.883Z,21.00
2018-08-03T00:52:43.547Z,20.88
2018-08-03T00:55:12.151Z,20.84
2018-08-03T00:57:40.872Z,21.00
2018-08-03T01:00:09.638Z,20.99
2018-08-03T01:02:38.582Z,20.63
2018-08-03T01:05:07.279Z,20.55
2018-08-03T01:07:35.921Z,20.43
2018-08-03T01:10:05.203Z,20.33
2018-08-03T01:12:33.867Z,20.27
2018-08-03T01:15:02.503Z,20.01
2018-08-03T01:17:31.125Z,19.86
2018-08-03T01:19:59.763Z,19.89
2018-08-03T01:22:28.366Z,19.93
2018-08-03T01:24:57.004Z,19.79
2018-08-03T01:27:25.615Z,19.71
2018-08-03T01:29:54.598Z,19.67
2018-08-03T01:32:23.567Z,19.58
2018-08-03T01:34:52.286Z,19.56
2018-08-03T01:37:21.008Z,19.59
2018-08-03T01:39:49.775Z,19.69
2018-08-03T01:42:18.423Z,19.86
2018-08-03T01:44:47.059Z,19.88
2018-08-03T01:47:15.705Z,19.88
2018-08-03T01:49:44.351Z,19.91
2018-08-03T01:52:12.971Z,19.99
2018-08-03T01:54:41.625Z,20.07
2018-08-03T01:57:10.298Z,20.17
2018-08-03T01:59:38.987Z,20.15
2018-08-03T02:02:07.699Z,20.24
2018-08-03T02:04:36.340Z,20.29
2018-08-03T02:07:05.232Z,20.14
2018-08-03T02:09:33.944Z,20.15
2018-08-03T02:12:02.848Z,20.37
2018-08-03T02:14:31.570Z,20.40
2018-08-03T02:17:00.296Z,20.40
2018-08-03T02:19:29.167Z,20.50
2018-08-03T02:21:58.142Z,20.46
2018-08-03T02:24:26.821Z,20.45
2018-08-03T02:26:55.423Z,20.45
2018-08-03T02:29:24.140Z,20.45
2018-08-03T02:31:52.846Z,20.48
2018-08-03T02:34:21.646Z,20.42
2018-08-03T02:36:50.331Z,20.40
2018-08-03T02:39:19.265Z,20.47
2018-08-03T02:41:47.935Z,20.52
2018-08-03T02:44:17.255Z,20.47
2018-08-03T02:46:45.951Z,20.31
2018-08-03T02:49:14.584Z,20.24
2018-08-03T02:51:43.222Z,20.24
2018-08-03T02:54:11.864Z,20.20
2018-08-03T02:56:40.514Z,20.25
2018-08-03T02:59:09.464Z,20.14
2018-08-03T03:01:38.110Z,20.09
2018-08-03T03:04:06.970Z,20.16
2018-08-03T03:06:35.595Z,20.19
2018-08-03T03:09:05.088Z,20.15
2018-08-03T03:11:33.710Z,20.03
2018-08-03T03:14:02.389Z,20.12
2018-08-03T03:16:31.004Z,20.18
2018-08-03T03:18:59.669Z,20.22
2018-08-03T03:21:28.370Z,20.14
2018-08-03T03:23:56.964Z,20.13
2018-08-03T03:26:25.607Z,20.02
2018-08-03T03:28:54.251Z,19.95
2018-08-03T03:31:22.921Z,19.77
2018-08-03T03:33:51.564Z,19.80
2018-08-03T03:36:20.285Z,19.90
2018-08-03T03:38:48.935Z,19.89
2018-08-03T03:41:17.640Z,19.88
2018-08-03T03:43:46.579Z,19.82
2018-08-03T03:46:15.268Z,19.94
2018-08-03T03:48:43.882Z,19.89
2018-08-03T03:51:12.589Z,19.81
2018-08-03T03:53:41.266Z,19.83
2018-08-03T03:56:10.249Z,19.85
2018-08-03T03:58:38.919Z,19.82
2018-08-03T04:01:07.602Z,20.02
2018-08-03T04:03:36.496Z,20.06
2018-08-03T04:06:05.375Z,20.05
2018-08-03T04:08:34.054Z,20.09
2018-08-03T04:11:02.851Z,20.22
2018-08-03T04:13:31.533Z,20.49
2018-08-03T04:16:00.855Z,20.60
2018-08-03T04:18:29.484Z,20.57
2018-08-03T04:20:58.091Z,20.37
2018-08-03T04:23:27.025Z,20.36
2018-08-03T04:25:55.962Z,20.30
2018-08-03T04:28:24.686Z,20.28
2018-08-03T04:30:53.344Z,20.37
2018-08-03T04:33:22.038Z,20.46
2018-08-03T04:35:50.658Z,20.37
2018-08-03T04:38:19.319Z,20.52
2018-08-03T04:40:47.931Z,20.41
2018-08-03T04:43:16.622Z,20.36
2018-08-03T04:45:45.224Z,20.43
2018-08-03T04:48:13.843Z,20.40
2018-08-03T04:50:42.435Z,20.42
2018-08-03T04:53:11.046Z,20.63
2018-08-03T04:55:39.658Z,20.81
2018-08-03T04:58:08.311Z,20.69
2018-08-03T05:00:36.985Z,21.18
2018-08-03T05:03:05.694Z,21.38
2018-08-03T05:05:34.343Z,21.66
2018-08-03T05:08:02.955Z,21.41
2018-08-03T05:10:31.646Z,21.19
2018-08-03T05:13:00.540Z,21.20
2018-08-03T05:15:29.223Z,21.26
2018-08-03T05:17:58.178Z,21.37
2018-08-03T05:20:26.846Z,21.27
2018-08-03T05:22:55.512Z,21.41
2018-08-03T05:25:24.201Z,22.28
2018-08-03T05:27:52.859Z,23.37
2018-08-03T05:30:21.598Z,22.97
2018-08-03T05:32:50.250Z,22.79
2018-08-03T05:35:19.054Z,23.99
2018-08-03T05:37:47.739Z,25.11
2018-08-03T05:40:16.446Z,25.44
2018-08-03T05:42:45.435Z,25.23
2018-08-03T05:45:14.143Z,25.06
2018-08-03T05:47:42.752Z,25.17
2018-08-03T05:50:11.739Z,26.01
2018-08-03T05:52:40.363Z,26.64
2018-08-03T05:55:09.016Z,26.89
2018-08-03T05:57:37.726Z,27.01
2018-08-03T06:00:08.045Z,26.83
2018-08-03T06:02:36.787Z,27.27
2018-08-03T06:05:06.514Z,26.04
2018-08-03T06:07:35.125Z,25.52
2018-08-03T06:10:03.876Z,24.91
2018-08-03T06:12:32.923Z,24.62
2018-08-03T06:15:01.656Z,24.54
2018-08-03T06:17:30.321Z,24.56
2018-08-03T06:19:59.262Z,25.35
2018-08-03T06:22:28.785Z,26.50
2018-08-03T06:24:57.467Z,27.60
2018-08-03T06:27:26.106Z,27.52
2018-08-03T06:29:54.759Z,28.39
2018-08-03T06:32:23.887Z,28.35
2018-08-03T06:34:52.590Z,28.86
2018-08-03T06:37:21.227Z,28.54
2018-08-03T06:39:50.158Z,28.21
2018-08-03T06:42:18.826Z,28.57
2018-08-03T06:44:47.499Z,28.23
2018-08-03T06:47:16.742Z,28.26
2018-08-03T06:49:45.373Z,28.31
2018-08-03T06:52:14.383Z,27.59
2018-08-03T06:54:43.303Z,27.67
2018-08-03T06:57:12.214Z,28.28
2018-08-03T06:59:41.148Z,28.96
2018-08-03T07:02:09.872Z,29.17
2018-08-03T07:04:38.516Z,28.90
2018-08-03T07:07:07.181Z,28.16
2018-08-03T07:09:35.851Z,27.33
2018-08-03T07:12:04.599Z,27.26
2018-08-03T07:14:33.499Z,27.08
2018-08-03T07:17:02.184Z,26.40
2018-08-03T07:19:30.854Z,26.21
2018-08-03T07:21:59.745Z,25.99
2018-08-03T07:24:28.444Z,25.95
2018-08-03T07:26:57.104Z,26.71
2018-08-03T07:29:25.778Z,27.23
2018-08-03T07:31:54.728Z,27.16
2018-08-03T07:34:23.432Z,28.27
2018-08-03T07:36:52.381Z,29.80
2018-08-03T07:39:21.566Z,30.22
2018-08-03T07:41:50.231Z,28.71
2018-08-03T07:44:19.701Z,27.47
2018-08-03T07:46:48.610Z,26.98
2018-08-03T07:49:17.259Z,26.41
2018-08-03T07:51:45.982Z,26.12
2018-08-03T07:54:14.918Z,25.88
2018-08-03T07:56:43.530Z,25.38
2018-08-03T07:59:12.179Z,25.31
2018-08-03T08:01:41.042Z,25.37
2018-08-03T08:04:10.278Z,25.14
2018-08-03T08:06:39.183Z,25.10
2018-08-03T08:09:09.982Z,24.96
2018-08-03T08:11:38.934Z,24.95
2018-08-03T08:14:08.183Z,24.85
2018-08-03T08:16:36.979Z,24.88
2018-08-03T08:19:05.889Z,25.04
2018-08-03T08:21:34.524Z,25.28
2018-08-03T08:24:03.547Z,25.55
2018-08-03T08:26:32.150Z,25.83
2018-08-03T08:29:00.861Z,26.28
2018-08-03T08:31:29.930Z,26.38
2018-08-03T08:33:58.682Z,26.22
2018-08-03T08:36:27.931Z,26.27
2018-08-03T08:38:56.551Z,26.24
2018-08-03T08:41:25.806Z,26.35
2018-08-03T08:43:54.566Z,26.47
2018-08-03T08:46:23.089Z,26.85
2018-08-03T08:48:52.012Z,27.63
2018-08-03T08:51:21.096Z,28.50
2018-08-03T08:53:49.747Z,30.24
2018-08-03T08:56:18.395Z,29.42
2018-08-03T08:58:47.059Z,28.17
2018-08-03T09:01:15.780Z,28.07
2018-08-03T09:03:44.707Z,29.73
2018-08-03T09:06:13.428Z,30.53
2018-08-03T09:08:42.066Z,30.67
2018-08-03T09:11:10.875Z,31.12
2018-08-03T09:13:39.504Z,30.50
2018-08-03T09:16:08.594Z,30.83
2018-08-03T09:18:37.386Z,29.38
2018-08-03T09:21:06.247Z,29.10
2018-08-03T09:23:34.863Z,29.34
2018-08-03T09:26:03.495Z,29.03
2018-08-03T09:28:32.156Z,28.89
2018-08-03T09:31:00.809Z,29.82
2018-08-03T09:33:29.462Z,30.73
2018-08-03T09:35:59.307Z,31.75
2018-08-03T09:38:27.998Z,32.07
2018-08-03T09:40:57.218Z,32.17
2018-08-03T09:43:26.731Z,32.14
2018-08-03T09:45:55.829Z,31.94
2018-08-03T09:48:24.475Z,32.38
2018-08-03T09:50:53.350Z,32.39
2018-08-03T09:53:22.240Z,32.45
2018-08-03T09:55:50.921Z,32.45
2018-08-03T09:58:20.037Z,31.73
2018-08-03T10:00:54.023Z,31.82
2018-08-03T10:03:22.885Z,30.97
2018-08-03T10:05:51.757Z,30.71
2018-08-03T10:08:20.895Z,31.09
2018-08-03T10:10:49.599Z,30.61
2018-08-03T10:13:18.581Z,30.92
2018-08-03T10:15:47.372Z,31.99
2018-08-03T10:18:16.171Z,32.55
2018-08-03T10:20:45.065Z,32.00
2018-08-03T10:23:14.254Z,31.70
2018-08-03T10:25:42.942Z,31.51
2018-08-03T10:28:11.759Z,31.12
2018-08-03T10:30:40.655Z,31.00
2018-08-03T10:33:09.588Z,30.68
2018-08-03T10:35:38.235Z,30.49
2018-08-03T10:38:06.891Z,30.20
2018-08-03T10:40:35.786Z,31.02
2018-08-03T10:43:04.825Z,30.59
2018-08-03T10:45:33.970Z,31.71
2018-08-03T10:48:02.656Z,32.33
2018-08-03T10:50:31.719Z,32.42
2018-08-03T10:53:00.417Z,30.71
2018-08-03T10:55:29.078Z,29.29
2018-08-03T10:57:57.716Z,30.89
2018-08-03T11:00:30.068Z,32.06
2018-08-03T11:02:59.187Z,32.57
2018-08-03T11:05:28.482Z,32.53
2018-08-03T11:07:57.239Z,32.20
2018-08-03T11:10:26.454Z,32.73
2018-08-03T11:12:55.351Z,33.00
2018-08-03T11:15:24.345Z,32.72
2018-08-03T11:17:53.323Z,30.51
2018-08-03T11:20:22.555Z,30.53
2018-08-03T11:22:51.512Z,31.64
2018-08-03T11:25:20.191Z,32.27
2018-08-03T11:27:49.467Z,32.98
2018-08-03T11:30:18.431Z,33.31
2018-08-03T11:32:47.114Z,32.33
2018-08-03T11:35:16.032Z,31.73
2018-08-03T11:37:44.806Z,32.76
2018-08-03T11:40:13.571Z,32.65
2018-08-03T11:42:42.258Z,32.83
2018-08-03T11:45:11.954Z,33.00
2018-08-03T11:47:40.829Z,32.07
2018-08-03T11:50:10.865Z,32.30
2018-08-03T11:52:40.204Z,32.88
2018-08-03T11:55:08.898Z,33.19
2018-08-03T11:57:37.838Z,32.98
2018-08-03T12:00:06.668Z,33.59
2018-08-03T12:02:35.654Z,33.51
2018-08-03T12:05:04.712Z,33.44
2018-08-03T12:07:33.379Z,33.74
2018-08-03T12:10:02.335Z,33.49
2018-08-03T12:12:31.030Z,32.32
2018-08-03T12:14:59.702Z,31.45
2018-08-03T12:17:28.945Z,31.98
2018-08-03T12:19:57.934Z,32.14
2018-08-03T12:22:26.603Z,31.40
2018-08-03T12:24:55.954Z,31.37
2018-08-03T12:27:24.621Z,31.13
2018-08-03T12:29:53.830Z,31.07
2018-08-03T12:32:23.159Z,31.13
2018-08-03T12:34:51.902Z,30.70
2018-08-03T12:37:20.679Z,30.55
2018-08-03T12:39:49.381Z,30.63
2018-08-03T12:42:18.129Z,30.45
2018-08-03T12:44:46.999Z,30.76
2018-08-03T12:47:15.909Z,30.40
2018-08-03T12:49:44.561Z,30.51
2018-08-03T12:52:13.508Z,30.50
2018-08-03T12:54:42.143Z,30.12
2018-08-03T13:07:12.107Z,30.14
2018-08-03T13:09:41.204Z,29.95
2018-08-03T13:12:10.202Z,29.44
2018-08-03T13:14:39.123Z,29.12
2018-08-03T13:17:08.055Z,29.27
2018-08-03T13:19:36.920Z,29.40
2018-08-03T13:22:05.549Z,29.09
2018-08-03T13:24:34.377Z,28.10
2018-08-03T13:27:03.001Z,29.12
2018-08-03T13:29:32.010Z,29.27
2018-08-03T13:32:00.701Z,29.22
2018-08-03T13:34:29.642Z,29.29
2018-08-03T13:36:58.364Z,29.20
2018-08-03T13:39:27.006Z,29.24
2018-08-03T13:41:55.674Z,29.31
2018-08-03T13:44:24.323Z,29.65
2018-08-03T13:46:53.019Z,28.89
2018-08-03T13:49:21.991Z,28.46
2018-08-03T13:51:50.960Z,28.35
2018-08-03T13:54:19.640Z,28.38
2018-08-03T13:56:48.554Z,28.20
2018-08-03T13:59:17.208Z,28.17
2018-08-03T14:01:56.977Z,28.31
2018-08-03T14:04:25.976Z,28.22
2018-08-03T14:06:54.951Z,28.23
2018-08-03T14:09:23.567Z,28.23
2018-08-03T14:11:52.332Z,27.97
2018-08-03T14:14:20.965Z,27.96
2018-08-03T14:16:49.602Z,27.89
2018-08-03T14:19:18.260Z,27.98
2018-08-03T14:21:46.906Z,28.00
2018-08-03T14:24:15.565Z,28.04
2018-08-03T14:26:44.483Z,27.90
2018-08-03T14:29:13.143Z,27.85
2018-08-03T14:31:42.010Z,27.76
2018-08-03T14:34:10.504Z,27.80
2018-08-03T14:36:39.180Z,27.80
2018-08-03T14:39:09.405Z,27.80
2018-08-03T14:41:38.713Z,27.82
2018-08-03T14:44:08.265Z,27.59
2018-08-03T14:46:37.560Z,27.42
2018-08-03T14:49:06.384Z,27.39
2018-08-03T14:51:35.071Z,27.41
2018-08-03T14:54:03.739Z,27.37
2018-08-03T14:56:32.380Z,27.36
2018-08-03T14:59:01.341Z,27.19
2018-08-03T15:01:30.034Z,27.25
2018-08-03T15:03:58.682Z,27.37
2018-08-03T15:06:27.337Z,27.36
2018-08-03T15:08:55.966Z,27.35
2018-08-03T15:11:24.648Z,27.17
2018-08-03T15:13:53.309Z,27.07
2018-08-03T15:16:21.949Z,27.00
2018-08-03T15:18:50.569Z,26.93
2018-08-03T15:21:19.210Z,26.90
2018-08-03T15:23:47.958Z,26.87
2018-08-03T15:26:16.599Z,26.71
2018-08-03T15:28:45.248Z,26.58
2018-08-03T15:31:13.899Z,26.69
2018-08-03T15:33:42.940Z,26.71
2018-08-03T15:36:11.654Z,26.79
2018-08-03T15:38:40.344Z,26.68
2018-08-03T15:41:08.971Z,26.50
2018-08-03T15:43:37.578Z,26.56
2018-08-03T15:46:06.319Z,26.68
2018-08-03T15:48:35.935Z,26.74
2018-08-03T15:51:04.665Z,26.66
2018-08-03T15:53:33.581Z,26.66
2018-08-03T15:56:02.238Z,26.48
2018-08-03T15:58:31.088Z,26.47
2018-08-03T16:01:00.061Z,26.36
2018-08-03T16:03:28.737Z,26.27
2018-08-03T16:05:58.568Z,26.13
2018-08-03T16:08:27.235Z,26.05
2018-08-03T16:10:55.834Z,26.12
2018-08-03T16:13:24.627Z,26.15
2018-08-03T16:15:53.271Z,26.06
2018-08-03T16:18:21.866Z,26.01
2018-08-03T16:20:50.506Z,26.00
2018-08-03T16:23:19.412Z,25.96
2018-08-03T16:25:48.332Z,25.93
2018-08-03T16:28:17.063Z,25.92
2018-08-03T16:30:45.766Z,25.92
2018-08-03T16:33:14.451Z,25.88
2018-08-03T16:35:43.134Z,25.79
2018-08-03T16:38:11.838Z,25.64
2018-08-03T16:40:40.789Z,25.64
2018-08-03T16:43:09.495Z,25.58
2018-08-03T16:45:38.199Z,25.58
2018-08-03T16:48:07.757Z,25.45
2018-08-03T16:50:36.727Z,25.42
2018-08-03T16:53:05.541Z,25.46
2018-08-03T16:55:34.207Z,25.47
2018-08-03T16:58:02.934Z,25.43
2018-08-03T17:00:31.607Z,25.35
2018-08-03T17:03:00.580Z,25.22
2018-08-03T17:05:29.202Z,25.17
2018-08-03T17:07:58.214Z,25.11
2018-08-03T17:10:26.909Z,25.14
2018-08-03T17:12:56.071Z,25.15
2018-08-03T17:15:25.029Z,25.16
2018-08-03T17:17:53.705Z,25.10
2018-08-03T17:20:22.367Z,25.05
2018-08-03T17:22:51.284Z,25.03
2018-08-03T17:25:19.971Z,25.02
2018-08-03T17:27:48.642Z,25.03
2018-08-03T17:30:17.315Z,25.03
2018-08-03T17:32:45.974Z,24.99
2018-08-03T17:35:14.613Z,24.87
2018-08-03T17:37:43.527Z,24.81
2018-08-03T17:40:12.190Z,24.77
2018-08-03T17:42:41.226Z,24.74
2018-08-03T17:45:09.935Z,24.69
2018-08-03T17:47:38.787Z,24.67
2018-08-03T17:50:07.501Z,24.59
2018-08-03T17:52:36.205Z,24.54
2018-08-03T17:55:05.284Z,24.53
2018-08-03T17:57:33.955Z,24.51
2018-08-03T18:00:03.775Z,24.48
2018-08-03T18:02:32.402Z,24.46
2018-08-03T18:05:01.037Z,24.50
2018-08-03T18:07:29.760Z,24.51
2018-08-03T18:09:58.417Z,24.51
2018-08-03T18:12:27.093Z,24.54
2018-08-03T18:14:56.156Z,24.49
2018-08-03T18:17:25.030Z,24.46
2018-08-03T18:19:53.805Z,24.39
2018-08-03T18:22:22.664Z,24.34
2018-08-03T18:24:51.369Z,24.29
2018-08-03T18:27:20.026Z,24.27
2018-08-03T18:29:48.692Z,24.26
2018-08-03T18:32:17.477Z,24.24
2018-08-03T18:34:46.170Z,24.25
2018-08-03T18:37:15.114Z,24.20
2018-08-03T18:39:43.841Z,24.14
2018-08-03T18:42:12.505Z,24.06
2018-08-03T18:44:41.329Z,24.02
2018-08-03T18:47:09.956Z,24.03
2018-08-03T18:49:38.583Z,24.01
2018-08-03T18:52:07.419Z,23.97
2018-08-03T18:54:36.063Z,23.91
2018-08-03T18:57:04.667Z,23.87
2018-08-03T18:59:33.315Z,23.84
2018-08-03T19:02:02.036Z,23.85
2018-08-03T19:04:30.747Z,23.82
2018-08-03T19:06:59.417Z,23.78
2018-08-03T19:09:29.105Z,23.74
2018-08-03T19:11:57.780Z,23.50
2018-08-03T19:14:26.502Z,23.43
2018-08-03T19:16:55.480Z,23.46
2018-08-03T19:19:24.458Z,23.62
2018-08-03T19:21:53.235Z,23.60
2018-08-03T19:24:21.749Z,23.54
2018-08-03T19:26:50.876Z,23.53
2018-08-03T19:29:20.177Z,23.55
2018-08-03T19:31:49.449Z,23.55
2018-08-03T19:34:18.308Z,23.50
2018-08-03T19:36:47.648Z,23.47
2018-08-03T19:39:16.582Z,23.56
2018-08-03T19:41:45.900Z,23.51
2018-08-03T19:44:15.222Z,23.39
2018-08-03T19:46:44.534Z,23.36
2018-08-03T19:49:13.880Z,23.33
2018-08-03T19:51:43.117Z,23.35
2018-08-03T19:54:11.798Z,23.41
2018-08-03T19:56:40.505Z,23.44
2018-08-03T19:59:09.334Z,23.28
2018-08-03T20:01:38.142Z,23.18
2018-08-03T20:04:07.246Z,23.12
2018-08-03T20:06:36.084Z,23.01
2018-08-03T20:09:08.088Z,22.93
2018-08-03T20:11:36.811Z,22.89
2018-08-03T20:14:05.495Z,22.98
2018-08-03T20:16:34.176Z,23.13
2018-08-03T20:19:02.846Z,23.21
2018-08-03T20:21:31.875Z,23.22
2018-08-03T20:24:00.563Z,23.20
2018-08-03T20:26:29.257Z,23.12
2018-08-03T20:28:57.894Z,23.10
2018-08-03T20:31:26.602Z,23.11
2018-08-03T20:33:55.546Z,23.09
2018-08-03T20:36:24.159Z,23.11
2018-08-03T20:38:52.821Z,23.21
2018-08-03T20:41:21.463Z,23.24
2018-08-03T20:43:50.104Z,23.17
2018-08-03T20:46:18.964Z,23.05
2018-08-03T20:48:47.567Z,23.00
2018-08-03T20:51:16.234Z,22.81
2018-08-03T20:53:45.086Z,22.38
2018-08-03T20:56:13.718Z,22.23
2018-08-03T20:58:42.339Z,22.14
2018-08-03T21:01:10.975Z,22.08
2018-08-03T21:03:39.650Z,22.05
2018-08-03T21:06:08.635Z,22.00
2018-08-03T21:08:37.383Z,21.96
2018-08-03T21:11:06.054Z,21.97
2018-08-03T21:13:34.743Z,21.98
2018-08-03T21:16:03.351Z,22.21
2018-08-03T21:18:31.990Z,22.34
2018-08-03T21:21:00.643Z,22.35
2018-08-03T21:23:29.359Z,22.30
2018-08-03T21:25:58.054Z,22.24
2018-08-03T21:28:26.694Z,22.14
2018-08-03T21:30:55.483Z,22.07
2018-08-03T21:33:24.123Z,22.08
2018-08-03T21:35:52.791Z,22.09
2018-08-03T21:38:21.402Z,21.93
2018-08-03T21:40:50.075Z,21.75
2018-08-03T21:43:18.794Z,21.67
2018-08-03T21:45:47.654Z,21.62
2018-08-03T21:48:16.310Z,21.65
2018-08-03T21:50:44.967Z,21.67
2018-08-03T21:53:13.623Z,21.57
2018-08-03T21:55:42.225Z,21.58
2018-08-03T21:58:11.365Z,21.41
2018-08-03T22:00:40.108Z,21.20
2018-08-03T22:03:08.770Z,20.99
2018-08-03T22:05:37.493Z,20.73
2018-08-03T22:08:06.229Z,20.55
2018-08-03T22:10:34.851Z,20.46
2018-08-03T22:13:03.536Z,20.34
2018-08-03T22:15:32.237Z,20.22
2018-08-03T22:18:01.064Z,20.21
2018-08-03T22:20:30.010Z,20.14
2018-08-03T22:22:58.694Z,20.08
2018-08-03T22:25:27.515Z,20.06
2018-08-03T22:27:56.194Z,19.97
2018-08-03T22:30:24.798Z,19.83
2018-08-03T22:32:53.542Z,19.81
2018-08-03T22:35:22.146Z,19.74
2018-08-03T22:37:51.106Z,19.67
2018-08-03T22:40:19.832Z,19.68
2018-08-03T22:42:48.538Z,19.62
2018-08-03T22:45:17.205Z,19.71
2018-08-03T22:47:45.829Z,19.74
2018-08-03T22:50:14.499Z,19.75
2018-08-03T22:52:43.202Z,19.69
2018-08-03T22:55:12.146Z,19.85
2018-08-03T22:57:40.855Z,19.92
2018-08-03T23:00:10.104Z,19.83
2018-08-03T23:02:39.011Z,19.83
2018-08-03T23:05:07.639Z,19.82
2018-08-03T23:07:36.301Z,19.88
2018-08-03T23:10:05.822Z,19.87
2018-08-03T23:12:34.423Z,19.84
2018-08-03T23:15:03.100Z,19.84
2018-08-03T23:17:31.758Z,19.88
2018-08-03T23:20:00.475Z,19.84
2018-08-03T23:22:29.135Z,19.76
2018-08-03T23:24:57.803Z,19.72
2018-08-03T23:27:26.445Z,19.77
2018-08-03T23:29:55.339Z,19.76
2018-08-03T23:32:24.931Z,19.77
2018-08-03T23:34:53.606Z,19.79
2018-08-03T23:37:22.264Z,19.78
2018-08-03T23:39:50.935Z,19.75
2018-08-03T23:42:19.900Z,19.74
2018-08-03T23:44:48.544Z,19.78
2018-08-03T23:47:17.580Z,19.84
2018-08-03T23:49:46.576Z,19.83
2018-08-03T23:52:15.446Z,19.80
2018-08-03T23:54:44.122Z,19.77
2018-08-03T23:57:12.856Z,19.75
2018-08-03T23:59:41.614Z,19.64
